Time;durP1;ratioP1;P1;durP2;ratioP2;P2;SDS_P1;SDS_P2;PMS_P1;PMS_P2;Temp;Humidity;BMP_temperature;BMP_pressure;BME280_temperature;BME280_humidity;BME280_pressure;Samples;Min_cycle;Max_cycle;Signal;HPM_P1;HPM_P2
2023/03/02 00:01:55;;;;;;;20.98;10.57;;;3.60;99.90;;;;;;5001776;28;20045;-89
2023/03/02 00:04:44;;;;;;;19.70;10.02;;;3.30;99.90;;;;;;5017664;28;20037;-90
2023/03/02 00:07:14;;;;;;;19.17;9.95;;;3.30;99.90;;;;;;5016514;28;20038;-88
2023/03/02 00:09:40;;;;;;;17.40;8.93;;;3.30;99.90;;;;;;5017909;28;20482;-88
2023/03/02 00:12:07;;;;;;;19.55;8.55;;;3.30;99.90;;;;;;5017371;28;20456;-88
2023/03/02 00:14:32;;;;;;;16.23;8.35;;;3.70;99.90;;;;;;5001166;28;20037;-88
2023/03/02 00:16:58;;;;;;;18.57;9.23;;;3.40;99.90;;;;;;5000719;28;20033;-88
2023/03/02 00:19:24;;;;;;;18.48;8.35;;;4.30;99.90;;;;;;5010029;28;20046;-90
2023/03/02 00:21:50;;;;;;;17.45;8.60;;;3.30;99.90;;;;;;5003233;28;20102;-90
2023/03/02 00:24:15;;;;;;;16.23;8.77;;;3.70;99.90;;;;;;5017473;28;20482;-90
2023/03/02 00:26:41;;;;;;;15.75;8.43;;;4.50;99.90;;;;;;5032947;28;20393;-91
2023/03/02 00:29:07;;;;;;;17.92;9.32;;;3.20;99.90;;;;;;5000932;28;20245;-89
2023/03/02 00:31:33;;;;;;;19.15;8.93;;;3.70;99.90;;;;;;5017114;28;20033;-89
2023/03/02 00:33:59;;;;;;;18.48;9.48;;;3.20;99.90;;;;;;5017323;28;20095;-89
2023/03/02 00:36:24;;;;;;;16.30;8.60;;;3.20;99.90;;;;;;5017442;28;20056;-89
2023/03/02 00:38:51;;;;;;;18.90;8.23;;;3.20;99.90;;;;;;5016950;28;20633;-89
2023/03/02 00:41:20;;;;;;;;;;;4.00;99.90;;;;;;5017312;28;20048;-89
2023/03/02 00:43:46;;;;;;;20.92;10.40;;;3.90;99.90;;;;;;5001732;28;19932;-88
2023/03/02 00:46:16;;;;;;;;;;;4.00;99.90;;;;;;5017412;28;20033;-89
2023/03/02 00:48:42;;;;;;;21.13;9.90;;;2.90;99.90;;;;;;5032903;28;19921;-89
2023/03/02 00:51:09;;;;;;;17.83;8.85;;;3.00;99.90;;;;;;5001491;28;20449;-89
2023/03/02 00:53:36;;;;;;;19.20;9.13;;;3.00;99.90;;;;;;5001333;28;20378;-89
2023/03/02 00:56:03;;;;;;;17.48;8.65;;;2.90;99.90;;;;;;5001054;28;20117;-89
2023/03/02 00:58:29;;;;;;;18.77;8.30;;;2.90;99.90;;;;;;5017013;28;20128;-88
2023/03/02 01:00:55;;;;;;;;;;;3.50;99.90;;;;;;5000584;28;20044;-89
2023/03/02 01:03:20;;;;;;;18.30;8.48;;;2.90;99.90;;;;;;5066453;28;19916;-89
2023/03/02 01:05:47;;;;;;;17.10;8.93;;;2.90;99.90;;;;;;5000178;28;20592;-88
2023/03/02 01:08:13;;;;;;;;;;;2.80;99.90;;;;;;5048583;28;20048;-88
2023/03/02 01:10:39;;;;;;;21.67;9.77;;;4.00;99.90;;;;;;5017117;28;19916;-89
2023/03/02 01:13:07;;;;;;;19.15;10.27;;;3.50;99.90;;;;;;5033930;28;20072;-89
2023/03/02 01:15:33;;;;;;;25.23;11.48;;;2.80;99.90;;;;;;5033259;28;20050;-89
2023/03/02 01:17:59;;;;;;;22.95;11.43;;;2.70;99.90;;;;;;5033082;28;20124;-89
2023/03/02 01:20:26;;;;;;;;;;;2.70;99.90;;;;;;4984589;28;20037;-89
2023/03/02 01:22:51;;;;;;;25.17;11.25;;;4.40;99.90;;;;;;5015968;28;19917;-89
2023/03/02 01:25:17;;;;;;;25.42;10.95;;;3.50;99.90;;;;;;5000329;28;20140;-88
2023/03/02 01:27:43;;;;;;;24.98;11.55;;;2.60;99.90;;;;;;5016312;28;20037;-88
2023/03/02 01:30:09;;;;;;;26.67;12.38;;;2.60;99.90;;;;;;5000355;28;20038;-88
2023/03/02 01:32:35;;;;;;;;;;;2.60;99.90;;;;;;5000204;28;20389;-89
2023/03/02 01:35:01;;;;;;;27.23;11.90;;;2.60;99.90;;;;;;5015248;28;20004;-88
2023/03/02 01:37:27;;;;;;;24.45;11.50;;;3.90;99.90;;;;;;5015719;28;20045;-88
2023/03/02 01:39:52;;;;;;;25.55;12.02;;;3.40;99.90;;;;;;5001920;28;20037;-89
2023/03/02 01:42:18;;;;;;;30.95;12.68;;;4.20;99.90;;;;;;4999698;28;20083;-88
2023/03/02 01:44:45;;;;;;;35.08;14.45;;;2.60;99.90;;;;;;4981212;28;20042;-89
2023/03/02 01:47:32;;;;;;;31.55;13.23;;;2.60;99.90;;;;;;5033228;28;20057;-87
2023/03/02 01:50:04;;;;;;;30.08;13.15;;;2.70;99.90;;;;;;5017739;28;20048;-89
2023/03/02 01:52:33;;;;;;;30.75;12.27;;;2.60;99.90;;;;;;5033563;28;20034;-88
2023/03/02 01:55:04;;;;;;;31.02;13.70;;;2.90;99.90;;;;;;5016925;28;20075;-89
2023/03/02 01:57:33;;;;;;;31.83;12.75;;;2.60;99.90;;;;;;5014836;28;20041;-88
2023/03/02 02:00:07;;;;;;;39.72;15.48;;;3.30;99.90;;;;;;5016447;28;20124;-88
2023/03/02 02:02:34;;;;;;;35.72;13.90;;;3.20;99.90;;;;;;5033269;28;20045;-88
2023/03/02 02:05:01;;;;;;;36.55;14.70;;;2.40;99.90;;;;;;5000465;28;20052;-88
2023/03/02 02:07:27;;;;;;;40.67;14.63;;;2.40;99.90;;;;;;4984667;28;20537;-89
2023/03/02 02:09:55;;;;;;;40.78;15.15;;;2.40;99.90;;;;;;5016898;28;20072;-89
2023/03/02 02:12:22;;;;;;;43.72;16.08;;;2.40;99.90;;;;;;5000879;28;20142;-89
2023/03/02 02:14:49;;;;;;;43.42;16.42;;;2.40;99.90;;;;;;5015758;28;20378;-88
2023/03/02 02:17:17;;;;;;;50.33;16.15;;;2.40;99.90;;;;;;5016680;28;20037;-88
2023/03/02 02:19:46;;;;;;;48.97;18.80;;;2.40;99.90;;;;;;5015073;28;20044;-89
2023/03/02 02:22:16;;;;;;;44.78;17.20;;;2.40;99.90;;;;;;5015461;28;20044;-89
2023/03/02 02:24:52;;;;;;;44.33;17.13;;;3.50;99.90;;;;;;5014976;28;20036;-89
2023/03/02 02:27:17;;;;;;;43.42;16.55;;;2.50;99.90;;;;;;5015373;28;20033;-88
2023/03/02 02:29:48;;;;;;;45.05;16.77;;;3.60;99.90;;;;;;4999543;28;20216;-89
2023/03/02 02:32:21;;;;;;;43.20;16.42;;;2.50;99.90;;;;;;5015806;28;20539;-89
2023/03/02 02:35:00;;;;;;;43.05;16.63;;;4.20;99.90;;;;;;5015146;28;20048;-89
2023/03/02 02:37:42;;;;;;;44.30;17.80;;;3.10;99.90;;;;;;5015218;28;20481;-87
2023/03/02 02:40:15;;;;;;;39.85;15.25;;;2.40;99.90;;;;;;5017945;28;20436;-89
2023/03/02 02:42:44;;;;;;;39.28;15.93;;;2.50;99.90;;;;;;5051182;28;20091;-88
2023/03/02 02:45:32;;;;;;;43.80;17.23;;;3.00;99.90;;;;;;5020131;28;20050;-89
2023/03/02 02:47:58;;;;;;;45.53;16.88;;;2.50;99.90;;;;;;5036840;28;20098;-89
2023/03/02 02:50:29;;;;;;;45.33;17.25;;;2.50;99.90;;;;;;5003751;28;20073;-89
2023/03/02 02:53:10;;;;;;;48.75;17.45;;;3.50;99.90;;;;;;5020765;28;20124;-89
2023/03/02 02:55:36;;;;;;;39.55;15.27;;;2.60;99.90;;;;;;5019657;28;20068;-89
2023/03/02 02:58:08;;;;;;;;;;;2.60;99.90;;;;;;5020703;28;20041;-90
2023/03/02 03:00:36;;;;;;;44.53;16.13;;;2.50;99.90;;;;;;5018574;28;19921;-89
2023/03/02 03:03:28;;;;;;;43.03;16.10;;;2.50;99.90;;;;;;5020691;28;20441;-91
2023/03/02 03:05:54;;;;;;;36.17;15.13;;;2.50;99.90;;;;;;5015030;28;20049;-89
2023/03/02 03:08:38;;;;;;;;;;;3.60;99.90;;;;;;5004410;28;20036;-90
2023/03/02 03:11:04;;;;;;;39.45;15.77;;;2.50;99.90;;;;;;5018992;28;19925;-90
2023/03/02 03:13:30;;;;;;;36.88;14.23;;;2.50;99.90;;;;;;5004889;28;20037;-89
2023/03/02 03:15:57;;;;;;;38.92;15.20;;;2.50;99.90;;;;;;5004306;28;20030;-92
2023/03/02 03:18:23;;;;;;;39.75;14.93;;;3.30;99.90;;;;;;5004568;28;20045;-92
2023/03/02 03:20:49;;;;;;;38.47;14.43;;;2.50;99.90;;;;;;5020521;28;20064;-91
2023/03/02 03:23:14;;;;;;;37.50;14.98;;;2.50;99.90;;;;;;5005246;28;20041;-91
2023/03/02 03:25:40;;;;;;;35.40;14.37;;;3.20;99.90;;;;;;5004951;28;20063;-90
2023/03/02 03:28:06;;;;;;;40.87;15.33;;;3.30;99.90;;;;;;5005497;28;20287;-90
2023/03/02 03:30:32;;;;;;;37.70;14.90;;;3.60;99.90;;;;;;5005273;28;20034;-90
2023/03/02 03:32:57;;;;;;;39.05;15.07;;;2.50;99.90;;;;;;5005787;28;20057;-91
2023/03/02 03:35:23;;;;;;;36.95;14.80;;;2.50;99.90;;;;;;4989658;28;20067;-91
2023/03/02 03:37:50;;;;;;;32.77;14.10;;;2.50;99.90;;;;;;5004622;28;20066;-91
2023/03/02 03:40:16;;;;;;;33.42;14.13;;;3.30;99.90;;;;;;5004952;28;20296;-90
2023/03/02 03:42:42;;;;;;;32.83;14.18;;;2.40;99.90;;;;;;5020702;28;20390;-89
2023/03/02 03:45:08;;;;;;;28.40;12.48;;;2.30;99.90;;;;;;5003816;28;20037;-89
2023/03/02 03:47:35;;;;;;;29.40;12.90;;;2.30;99.90;;;;;;5019362;28;20072;-89
2023/03/02 03:50:00;;;;;;;30.50;13.90;;;3.10;99.90;;;;;;5003867;28;20037;-89
2023/03/02 03:52:30;;;;;;;31.20;13.07;;;3.50;99.90;;;;;;4987031;28;20397;-90
2023/03/02 03:54:58;;;;;;;34.72;15.18;;;2.20;99.90;;;;;;5016435;28;20091;-90
2023/03/02 03:57:24;;;;;;;32.63;13.98;;;2.20;99.90;;;;;;5001918;28;20048;-89
2023/03/02 03:59:50;;;;;;;34.72;14.82;;;2.20;99.90;;;;;;5002079;28;20172;-89
2023/03/02 04:02:16;;;;;;;38.53;15.55;;;2.20;99.90;;;;;;5018254;28;20045;-90
2023/03/02 04:04:41;;;;;;;36.85;14.43;;;3.20;99.90;;;;;;5009950;28;20037;-90
2023/03/02 04:07:08;;;;;;;38.55;16.25;;;2.70;99.90;;;;;;5019120;28;20029;-90
2023/03/02 04:09:36;;;;;;;41.50;16.58;;;2.30;99.90;;;;;;5001936;28;20025;-90
2023/03/02 04:12:03;;;;;;;47.90;17.85;;;3.40;99.90;;;;;;5018226;28;20033;-90
2023/03/02 04:14:29;;;;;;;61.75;22.70;;;2.00;99.90;;;;;;5002801;28;20080;-90
2023/03/02 04:16:55;;;;;;;49.35;17.83;;;2.10;99.90;;;;;;5018386;28;20116;-90
2023/03/02 04:19:21;;;;;;;55.13;19.20;;;2.00;99.90;;;;;;5018154;28;20041;-90
2023/03/02 04:21:50;;;;;;;62.15;19.92;;;2.30;99.90;;;;;;5001559;28;20060;-90
2023/03/02 04:24:17;;;;;;;60.60;20.73;;;2.80;99.90;;;;;;5033834;28;20037;-89
2023/03/02 04:26:43;;;;;;;62.95;21.15;;;2.10;99.90;;;;;;5001335;28;20033;-90
2023/03/02 04:29:10;;;;;;;58.05;22.00;;;2.00;99.90;;;;;;5000020;28;20052;-90
2023/03/02 04:31:37;;;;;;;60.25;19.35;;;2.50;99.90;;;;;;5018705;28;20034;-90
2023/03/02 04:34:04;;;;;;;61.38;19.90;;;3.10;99.90;;;;;;5002190;28;20092;-90
2023/03/02 04:36:31;;;;;;;57.00;20.40;;;3.50;99.90;;;;;;5018463;28;20405;-91
2023/03/02 04:38:57;;;;;;;65.00;21.17;;;2.10;99.90;;;;;;5011776;28;20037;-90
2023/03/02 04:41:23;;;;;;;80.03;21.05;;;2.00;99.90;;;;;;5018591;28;20107;-90
2023/03/02 04:43:48;;;;;;;89.53;21.23;;;2.00;99.90;;;;;;5002107;28;20044;-89
2023/03/02 04:46:20;;;;;;;77.20;22.38;;;3.10;99.90;;;;;;5002737;28;20042;-90
2023/03/02 04:48:46;;;;;;;70.78;20.42;;;2.90;99.90;;;;;;5017386;28;20045;-90
2023/03/02 04:51:22;;;;;;;68.40;20.40;;;2.10;99.90;;;;;;4985797;28;20080;-90
2023/03/02 04:53:56;;;;;;;74.18;21.90;;;2.00;99.90;;;;;;5018008;28;20034;-91
2023/03/02 04:56:22;;;;;;;114.50;25.77;;;2.00;99.90;;;;;;5001828;28;20106;-90
2023/03/02 04:58:48;;;;;;;57.80;19.02;;;2.00;99.90;;;;;;4984235;28;20116;-90
2023/03/02 05:01:15;;;;;;;121.15;21.77;;;2.90;99.90;;;;;;4998936;28;20045;-90
2023/03/02 05:03:41;;;;;;;83.57;19.73;;;2.70;99.90;;;;;;4999807;28;20041;-90
2023/03/02 05:06:08;;;;;;;107.97;22.15;;;3.20;99.90;;;;;;5016924;28;20037;-90
2023/03/02 05:08:34;;;;;;;75.07;19.42;;;2.70;99.90;;;;;;5016958;28;20471;-90
2023/03/02 05:11:00;;;;;;;94.38;21.25;;;3.30;99.90;;;;;;5000313;28;20117;-89
2023/03/02 05:13:27;;;;;;;65.68;18.95;;;1.80;99.90;;;;;;5000973;28;20061;-90
2023/03/02 05:15:53;;;;;;;;;;;1.90;99.90;;;;;;5019170;28;20048;-86
2023/03/02 05:18:19;;;;;;;85.10;19.63;;;2.80;99.90;;;;;;5035831;28;19917;-90
2023/03/02 05:20:45;;;;;;;75.45;18.55;;;2.70;99.90;;;;;;5019016;28;20433;-92
2023/03/02 05:23:22;;;;;;;91.40;18.08;;;3.00;99.90;;;;;;5018417;28;20445;-91
2023/03/02 05:25:50;;;;;;;103.88;18.25;;;2.50;99.90;;;;;;5002539;28;20124;-89
2023/03/02 05:28:16;;;;;;;115.75;19.58;;;1.60;99.90;;;;;;5017279;28;20041;-86
2023/03/02 05:30:42;;;;;;;81.00;16.77;;;2.20;99.90;;;;;;5017668;28;20490;-89
2023/03/02 05:33:08;;;;;;;53.83;15.05;;;1.60;99.90;;;;;;5015911;28;20044;-83
2023/03/02 05:35:34;;;;;;;87.82;17.88;;;2.90;99.90;;;;;;5031373;28;20179;-82
2023/03/02 05:37:59;;;;;;;113.22;19.70;;;1.60;99.90;;;;;;5030689;28;20092;-81
2023/03/02 05:40:25;;;;;;;102.53;20.43;;;1.60;99.90;;;;;;5031605;28;20044;-82
2023/03/02 05:42:51;;;;;;;82.70;18.48;;;1.50;99.90;;;;;;4981086;28;20291;-81
2023/03/02 05:45:25;;;;;;;60.20;17.27;;;2.60;99.90;;;;;;5015910;28;20040;-82
2023/03/02 05:47:51;;;;;;;113.53;19.52;;;1.40;99.90;;;;;;5013815;28;20458;-84
2023/03/02 05:50:17;;;;;;;115.65;19.27;;;1.40;99.90;;;;;;5015261;28;20128;-83
2023/03/02 05:52:44;;;;;;;111.47;19.20;;;1.50;99.90;;;;;;5031098;28;20116;-84
2023/03/02 05:55:11;;;;;;;118.25;20.17;;;1.50;99.90;;;;;;4979783;28;20055;-82
2023/03/02 05:57:37;;;;;;;103.45;18.75;;;1.50;99.90;;;;;;5030996;28;20072;-81
2023/03/02 06:00:04;;;;;;;112.93;20.65;;;1.60;99.90;;;;;;5029741;28;20728;-81
2023/03/02 06:02:31;;;;;;;116.88;18.83;;;1.50;99.90;;;;;;5013850;28;20048;-81
2023/03/02 06:04:57;;;;;;;196.63;23.70;;;1.50;99.90;;;;;;4996780;28;20037;-81
2023/03/02 06:07:22;;;;;;;86.78;16.83;;;1.40;99.90;;;;;;5031493;28;20450;-81
2023/03/02 06:09:49;;;;;;;119.72;20.58;;;1.40;99.90;;;;;;5030018;28;20442;-81
2023/03/02 06:12:16;;;;;;;134.23;19.55;;;2.60;99.90;;;;;;5011545;28;20116;-81
2023/03/02 06:14:43;;;;;;;132.32;23.15;;;1.40;99.90;;;;;;5013360;28;20038;-81
2023/03/02 06:17:09;;;;;;;110.30;17.55;;;2.10;99.90;;;;;;5029614;28;20037;-81
2023/03/02 06:19:35;;;;;;;132.75;19.67;;;1.50;99.90;;;;;;5029800;28;20085;-81
2023/03/02 06:22:01;;;;;;;133.27;19.33;;;1.80;99.90;;;;;;5029095;28;20033;-81
2023/03/02 06:24:26;;;;;;;100.60;19.90;;;1.40;99.90;;;;;;4997223;28;20038;-81
2023/03/02 06:26:53;;;;;;;93.53;20.13;;;1.40;99.90;;;;;;4996814;28;20034;-81
2023/03/02 06:29:20;;;;;;;70.55;17.48;;;2.70;99.90;;;;;;5013104;28;20290;-81
2023/03/02 06:31:45;;;;;;;;;;;1.50;99.90;;;;;;4997504;28;20088;-81
2023/03/02 06:34:11;;;;;;;126.68;21.63;;;1.50;99.90;;;;;;5013186;28;20369;-81
2023/03/02 06:36:37;;;;;;;99.22;18.98;;;2.40;99.90;;;;;;4996989;28;20049;-81
2023/03/02 06:39:05;;;;;;;92.68;19.08;;;1.50;99.90;;;;;;5029496;28;20048;-82
2023/03/02 06:41:32;;;;;;;114.35;20.08;;;1.50;99.90;;;;;;5014058;28;20037;-81
2023/03/02 06:43:59;;;;;;;66.90;18.13;;;2.70;99.90;;;;;;5029674;28;20053;-81
2023/03/02 06:46:25;;;;;;;110.93;18.33;;;1.60;99.90;;;;;;5029698;28;20037;-80
2023/03/02 06:48:51;;;;;;;93.43;18.08;;;1.60;99.90;;;;;;5012421;28;20049;-80
2023/03/02 06:51:16;;;;;;;76.60;17.80;;;1.60;99.90;;;;;;5012216;28;20052;-80
2023/03/02 06:53:43;;;;;;;118.38;21.27;;;1.60;99.90;;;;;;5012502;28;20041;-81
2023/03/02 06:56:09;;;;;;;65.10;15.95;;;1.60;99.90;;;;;;5029193;28;20045;-80
2023/03/02 06:58:35;;;;;;;80.88;17.77;;;2.20;99.90;;;;;;5013285;28;20033;-80
2023/03/02 07:01:02;;;;;;;62.08;17.05;;;1.60;99.90;;;;;;5029101;28;20036;-81
2023/03/02 07:03:27;;;;;;;100.82;19.20;;;1.60;99.90;;;;;;4996839;28;20041;-80
2023/03/02 07:05:53;;;;;;;76.18;16.70;;;1.60;99.90;;;;;;5029836;28;20383;-80
2023/03/02 07:08:19;;;;;;;107.40;17.08;;;3.10;99.90;;;;;;5012749;28;20060;-80
2023/03/02 07:10:44;;;;;;;116.35;19.13;;;3.00;99.90;;;;;;4997401;28;20144;-80
2023/03/02 07:13:10;;;;;;;120.18;20.35;;;1.50;99.90;;;;;;5029031;28;20037;-80
2023/03/02 07:15:38;;;;;;;59.47;15.70;;;2.40;99.90;;;;;;4996687;28;20041;-81
2023/03/02 07:18:04;;;;;;;110.45;20.50;;;1.50;99.90;;;;;;5012582;28;20395;-81
2023/03/02 07:20:30;;;;;;;121.57;18.73;;;1.40;99.90;;;;;;5013337;28;20042;-81
2023/03/02 07:22:56;;;;;;;111.03;20.00;;;1.40;99.90;;;;;;4996267;28;20091;-81
2023/03/02 07:25:22;;;;;;;66.82;18.10;;;2.90;99.90;;;;;;5013811;28;20047;-80
2023/03/02 07:27:48;;;;;;;88.15;18.83;;;1.40;99.90;;;;;;5017220;28;20120;-80
2023/03/02 07:30:14;;;;;;;77.93;17.30;;;1.50;99.90;;;;;;5032639;28;20033;-81
2023/03/02 07:32:40;;;;;;;64.95;16.05;;;1.40;99.90;;;;;;5017002;28;20516;-81
2023/03/02 07:35:06;;;;;;;135.80;18.95;;;2.80;99.90;;;;;;4999671;28;20045;-81
2023/03/02 07:37:32;;;;;;;123.97;20.52;;;1.50;99.90;;;;;;5016800;28;20033;-82
2023/03/02 07:39:58;;;;;;;128.70;20.35;;;1.40;99.90;;;;;;5015936;28;20183;-82
2023/03/02 07:42:24;;;;;;;96.60;16.77;;;2.50;99.90;;;;;;5000015;28;20479;-82
2023/03/02 07:44:52;;;;;;;50.75;15.43;;;1.50;99.90;;;;;;5033244;28;20374;-81
2023/03/02 07:47:18;;;;;;;102.57;18.65;;;1.60;99.90;;;;;;5032421;28;20085;-81
2023/03/02 07:49:44;;;;;;;85.20;19.13;;;2.00;99.90;;;;;;4999975;28;20047;-81
2023/03/02 07:52:10;;;;;;;61.33;16.55;;;1.60;99.90;;;;;;5020165;28;20823;-80
2023/03/02 07:54:38;;;;;;;69.75;16.92;;;1.60;99.90;;;;;;5017596;28;20387;-82
2023/03/02 07:57:04;;;;;;;45.97;15.82;;;1.70;99.90;;;;;;5032325;28;20056;-82
2023/03/02 07:59:30;;;;;;;61.20;15.70;;;1.70;99.90;;;;;;4996790;28;20041;-80
2023/03/02 08:01:57;;;;;;;51.13;16.50;;;1.70;99.90;;;;;;5031403;28;20280;-80
2023/03/02 08:04:23;;;;;;;122.00;18.48;;;2.50;99.90;;;;;;5032213;28;20296;-80
2023/03/02 08:06:49;;;;;;;50.42;14.98;;;1.70;99.90;;;;;;5032364;28;20132;-80
2023/03/02 08:09:16;;;;;;;71.60;15.20;;;1.70;99.90;;;;;;4983549;28;20120;-83
2023/03/02 08:11:41;;;;;;;60.05;15.15;;;1.60;99.90;;;;;;5001418;28;20037;-81
2023/03/02 08:14:07;;;;;;;45.67;14.52;;;1.90;99.90;;;;;;5033486;28;20103;-81
2023/03/02 08:16:33;;;;;;;44.85;15.05;;;2.70;99.90;;;;;;5016416;28;20038;-81
2023/03/02 08:18:58;;;;;;;45.30;13.50;;;1.60;99.90;;;;;;4999694;28;20042;-81
2023/03/02 08:21:25;;;;;;;47.60;14.90;;;1.80;99.90;;;;;;5017399;28;20041;-81
2023/03/02 08:23:51;;;;;;;46.40;14.80;;;2.60;99.90;;;;;;5032263;28;20532;-82
2023/03/02 08:26:18;;;;;;;49.78;15.25;;;2.30;99.90;;;;;;5014843;28;20072;-81
2023/03/02 08:28:45;;;;;;;48.90;14.85;;;1.80;99.90;;;;;;5031532;28;20059;-81
2023/03/02 08:31:12;;;;;;;36.88;14.65;;;1.80;99.90;;;;;;5031337;28;20037;-81
2023/03/02 08:33:38;;;;;;;;;;;1.90;99.90;;;;;;5031946;28;20094;-81
2023/03/02 08:36:07;;;;;;;42.95;14.10;;;3.00;99.90;;;;;;5030992;28;20213;-81
2023/03/02 08:38:34;;;;;;;40.00;15.30;;;1.80;99.90;;;;;;5031240;28;20124;-81
2023/03/02 08:41:03;;;;;;;39.80;14.65;;;1.80;99.90;;;;;;5031547;28;20037;-81
2023/03/02 08:43:30;;;;;;;33.53;13.63;;;1.90;99.90;;;;;;5010677;28;20047;-81
2023/03/02 08:45:58;;;;;;;36.35;14.13;;;1.90;99.90;;;;;;5014931;28;20041;-81
2023/03/02 08:48:26;;;;;;;34.63;12.52;;;3.10;99.90;;;;;;5030494;28;20147;-81
2023/03/02 08:50:57;;;;;;;36.55;13.52;;;2.40;99.90;;;;;;5031558;28;20037;-81
2023/03/02 08:53:24;;;;;;;32.95;13.43;;;2.00;99.90;;;;;;5031007;28;20029;-81
2023/03/02 08:55:50;;;;;;;32.10;12.98;;;2.00;99.90;;;;;;5031516;28;20509;-82
2023/03/02 08:58:16;;;;;;;32.40;13.25;;;3.30;99.90;;;;;;5031213;28;20041;-82
2023/03/02 09:00:41;;;;;;;29.55;12.00;;;2.10;99.90;;;;;;5031154;28;20044;-81
2023/03/02 09:03:07;;;;;;;35.85;13.63;;;2.50;99.90;;;;;;5014453;28;20063;-82
2023/03/02 09:05:33;;;;;;;33.83;12.50;;;2.10;99.90;;;;;;5031085;28;20037;-81
2023/03/02 09:07:58;;;;;;;34.63;13.10;;;2.00;99.90;;;;;;5014630;28;20040;-81
2023/03/02 09:10:24;;;;;;;34.47;13.07;;;2.50;99.90;;;;;;4997954;28;20076;-81
2023/03/02 09:12:50;;;;;;;30.55;11.68;;;2.10;99.90;;;;;;5014603;28;20065;-83
2023/03/02 09:15:15;;;;;;;31.77;11.60;;;2.00;99.90;;;;;;5030876;28;20041;-82
2023/03/02 09:17:41;;;;;;;28.85;11.32;;;2.00;99.90;;;;;;5014600;28;20037;-82
2023/03/02 09:20:08;;;;;;;32.97;10.83;;;2.70;99.90;;;;;;4997788;28;20120;-81
2023/03/02 09:22:34;;;;;;;32.22;11.80;;;2.10;99.90;;;;;;5032520;28;20044;-81
2023/03/02 09:25:02;;;;;;;29.30;11.73;;;2.20;99.90;;;;;;4997884;28;20073;-81
2023/03/02 09:27:28;;;;;;;29.88;11.38;;;2.20;99.90;;;;;;5030493;28;20083;-81
2023/03/02 09:29:54;;;;;;;28.00;11.88;;;2.80;99.90;;;;;;5030779;28;20037;-81
2023/03/02 09:32:19;;;;;;;31.33;12.38;;;2.80;99.90;;;;;;5014469;28;20045;-81
2023/03/02 09:34:45;;;;;;;29.17;11.10;;;3.90;99.90;;;;;;5015313;28;20049;-81
2023/03/02 09:37:11;;;;;;;28.35;11.75;;;2.70;99.90;;;;;;5014562;28;20316;-82
2023/03/02 09:39:37;;;;;;;25.40;10.87;;;3.90;99.90;;;;;;4997425;28;20076;-82
2023/03/02 09:42:11;;;;;;;28.17;11.88;;;2.70;99.90;;;;;;5030364;28;20677;-82
2023/03/02 09:45:14;;;;;;;30.50;12.40;;;2.80;99.90;;;;;;5013005;28;20124;-82
2023/03/02 09:48:11;;;;;;;29.95;12.25;;;2.80;99.90;;;;;;5030385;28;20049;-82
2023/03/02 09:50:45;;;;;;;25.60;10.93;;;3.00;99.90;;;;;;5062711;28;20056;-82
2023/03/02 09:53:14;;;;;;;35.00;11.25;;;3.10;99.90;;;;;;5013226;28;20068;-82
2023/03/02 09:55:39;;;;;;;33.60;12.35;;;3.20;99.90;;;;;;5014908;28;20045;-82
2023/03/02 09:58:14;;;;;;;29.90;11.45;;;3.30;99.90;;;;;;5000226;28;20125;-82
2023/03/02 10:00:42;;;;;;;30.33;11.38;;;3.40;99.90;;;;;;5031505;28;20115;-82
2023/03/02 10:03:17;;;;;;;27.67;10.80;;;3.60;99.90;;;;;;5030658;28;20489;-81
2023/03/02 10:05:46;;;;;;;26.60;10.60;;;3.60;99.90;;;;;;5030801;28;20155;-82
2023/03/02 10:08:19;;;;;;;34.17;11.68;;;3.50;99.90;;;;;;5030777;28;20482;-81
2023/03/02 10:11:06;;;;;;;26.80;10.85;;;4.30;99.90;;;;;;5012890;28;20095;-81
2023/03/02 10:13:52;;;;;;;28.65;11.15;;;3.40;99.90;;;;;;5010870;28;20059;-81
2023/03/02 10:16:27;;;;;;;34.20;11.98;;;3.50;99.90;;;;;;5013660;28;20041;-83
2023/03/02 10:19:31;;;;;;;29.60;12.00;;;3.60;99.90;;;;;;5031241;28;20042;-83
2023/03/02 10:22:21;;;;;;;32.75;13.32;;;3.50;99.90;;;;;;4998541;28;20072;-83
2023/03/02 10:25:07;;;;;;;35.10;12.55;;;3.70;99.90;;;;;;5027696;28;20621;-82
2023/03/02 10:27:41;;;;;;;35.22;12.32;;;3.90;99.90;;;;;;5027390;28;20042;-82
2023/03/02 10:30:34;;;;;;;32.30;11.45;;;3.90;99.90;;;;;;5012921;28;20120;-82
2023/03/02 10:33:07;;;;;;;29.83;11.82;;;4.00;99.90;;;;;;5017341;28;20050;-82
2023/03/02 10:35:44;;;;;;;30.30;12.60;;;5.00;99.90;;;;;;5011524;28;20493;-82
2023/03/02 10:38:12;;;;;;;33.15;12.63;;;6.10;99.90;;;;;;5013290;28;20033;-83
2023/03/02 10:40:41;;;;;;;30.45;12.18;;;6.60;99.90;;;;;;5012945;28;20037;-83
2023/03/02 10:43:30;;;;;;;30.88;13.07;;;7.30;99.90;;;;;;5010905;28;20512;-82
2023/03/02 10:46:08;;;;;;;29.75;12.35;;;7.30;99.90;;;;;;5012399;28;20119;-82
2023/03/02 10:48:52;;;;;;;26.60;12.02;;;7.20;99.90;;;;;;5028085;28;20061;-82
2023/03/02 10:51:27;;;;;;;23.60;10.55;;;6.80;99.90;;;;;;5028286;28;20094;-83
2023/03/02 10:54:22;;;;;;;28.85;11.90;;;6.80;99.90;;;;;;5011966;28;20482;-83
2023/03/02 10:56:50;;;;;;;28.17;12.88;;;6.90;99.90;;;;;;4994559;28;20504;-82
2023/03/02 10:59:39;;;;;;;27.80;10.98;;;6.70;99.90;;;;;;5029198;28;20509;-82
2023/03/02 11:02:13;;;;;;;28.23;12.48;;;6.80;99.90;;;;;;5031425;28;20049;-82
2023/03/02 11:04:39;;;;;;;26.20;10.60;;;6.80;99.90;;;;;;5033053;28;20041;-82
2023/03/02 11:07:19;;;;;;;23.67;10.50;;;6.80;99.90;;;;;;5032706;28;20052;-83
2023/03/02 11:10:02;;;;;;;22.95;9.95;;;6.90;99.90;;;;;;5010299;28;20069;-83
2023/03/02 11:12:30;;;;;;;28.65;11.35;;;7.20;99.90;;;;;;5062818;28;20034;-83
2023/03/02 11:15:18;;;;;;;24.23;11.45;;;7.70;99.90;;;;;;5000493;28;20033;-81
2023/03/02 11:17:47;;;;;;;24.58;11.77;;;8.40;99.90;;;;;;5064481;28;20067;-82
2023/03/02 11:20:21;;;;;;;21.63;10.23;;;9.10;99.90;;;;;;5033143;28;20037;-82
2023/03/02 11:23:09;;;;;;;19.83;10.18;;;9.20;99.90;;;;;;5045675;28;20123;-82
2023/03/02 11:25:38;;;;;;;21.08;9.48;;;9.50;99.90;;;;;;5015782;28;20480;-82
2023/03/02 11:28:20;;;;;;;18.35;9.95;;;9.70;99.90;;;;;;5032335;28;20103;-82
2023/03/02 11:30:49;;;;;;;16.90;8.88;;;10.00;99.90;;;;;;5015139;28;20499;-82
2023/03/02 11:33:44;;;;;;;15.23;8.38;;;10.40;99.90;;;;;;5015659;28;20041;-82
2023/03/02 11:36:36;;;;;;;14.75;8.07;;;10.90;99.90;;;;;;5016004;28;20405;-82
2023/03/02 11:39:08;;;;;;;14.13;7.75;;;11.20;99.90;;;;;;5032145;28;20537;-82
2023/03/02 11:41:35;;;;;;;14.15;7.35;;;11.70;99.90;;;;;;5015820;28;20040;-84
2023/03/02 11:44:23;;;;;;;12.40;7.32;;;12.40;99.90;;;;;;5016427;28;20041;-83
2023/03/02 11:46:57;;;;;;;15.65;8.43;;;12.50;99.90;;;;;;5030514;28;20404;-83
2023/03/02 11:49:35;;;;;;;14.05;8.30;;;12.20;99.90;;;;;;5032512;28;20057;-82
2023/03/02 11:52:01;;;;;;;12.38;7.00;;;12.40;99.90;;;;;;5015848;28;20471;-83
2023/03/02 11:54:48;;;;;;;14.70;8.38;;;12.40;99.90;;;;;;5032399;28;20120;-82
2023/03/02 11:57:36;;;;;;;13.45;8.15;;;12.50;99.90;;;;;;5032648;28;20111;-83
2023/03/02 12:00:09;;;;;;;13.48;8.50;;;12.40;99.90;;;;;;5031690;28;20045;-83
2023/03/02 12:02:35;;;;;;;14.82;7.80;;;12.40;99.90;;;;;;5030783;28;20497;-82
2023/03/02 12:05:04;;;;;;;12.95;7.97;;;13.00;99.90;;;;;;5032342;28;20033;-82
2023/03/02 12:07:30;;;;;;;11.52;7.43;;;13.10;99.90;;;;;;5030174;28;20068;-82
2023/03/02 12:10:20;;;;;;;10.75;6.72;;;12.60;99.90;;;;;;5029834;28;20512;-83
2023/03/02 12:13:17;;;;;;;12.35;7.43;;;12.60;99.90;;;;;;5029594;28;20033;-83
2023/03/02 12:15:45;;;;;;;11.40;6.47;;;12.80;99.90;;;;;;5013933;28;20045;-83
2023/03/02 12:18:20;;;;;;;11.18;7.25;;;13.10;99.90;;;;;;5031293;28;20049;-83
2023/03/02 12:21:06;;;;;;;11.73;7.22;;;13.30;99.90;;;;;;5012869;28;20037;-82
2023/03/02 12:23:34;;;;;;;12.07;7.25;;;13.40;99.90;;;;;;5013222;28;20037;-83
2023/03/02 12:26:26;;;;;;;13.75;7.85;;;13.60;99.90;;;;;;5031610;28;20037;-83
2023/03/02 12:29:15;;;;;;;12.88;8.32;;;14.00;99.90;;;;;;5007726;28;20080;-83
2023/03/02 12:31:45;;;;;;;12.05;7.97;;;14.20;99.90;;;;;;5004062;28;20474;-82
2023/03/02 12:34:23;;;;;;;11.38;7.97;;;14.40;99.90;;;;;;5031648;28;20045;-83
2023/03/02 12:36:54;;;;;;;14.95;8.15;;;14.10;99.90;;;;;;5012070;28;20528;-83
2023/03/02 12:39:47;;;;;;;12.55;7.93;;;13.90;99.90;;;;;;5015138;28;20571;-83
2023/03/02 12:42:36;;;;;;;11.50;7.32;;;13.70;99.90;;;;;;5031792;28;20060;-83
2023/03/02 12:45:36;;;;;;;11.38;7.25;;;13.30;99.90;;;;;;5008963;28;20486;-83
2023/03/02 12:48:32;;;;;;;10.23;7.00;;;13.60;99.90;;;;;;5029610;28;20042;-83
2023/03/02 12:51:00;;;;;;;11.07;6.95;;;13.50;99.90;;;;;;5030304;28;20037;-83
2023/03/02 12:53:27;;;;;;;11.50;7.20;;;13.30;99.90;;;;;;5030826;28;20038;-83
2023/03/02 12:55:53;;;;;;;11.10;7.45;;;13.20;99.90;;;;;;5014676;28;20033;-82